Time;durP1;ratioP1;P1;durP2;ratioP2;P2;SDS_P1;SDS_P2;PMS_P1;PMS_P2;Temp;Humidity;BMP_temperature;BMP_pressure;BME280_temperature;BME280_humidity;BME280_pressure;Samples;Min_cycle;Max_cycle;Signal;HPM_P1;HPM_P2
2023/12/11 00:01:12;;;;;;;33.70;6.28;;;;;;;;;;4989740;28;99396;-71
2023/12/11 00:03:38;;;;;;;41.35;6.40;;;;;;;;;;4971263;28;100250;-71
2023/12/11 00:06:06;;;;;;;40.75;6.25;;;;;;;;;;4969922;28;98265;-71
2023/12/11 00:08:32;;;;;;;40.67;6.00;;;;;;;;;;4971130;28;98505;-71
2023/12/11 00:10:59;;;;;;;45.13;7.25;;;;;;;;;;4971198;28;100010;-70
2023/12/11 00:13:25;;;;;;;38.05;7.13;;;;;;;;;;4973707;28;98349;-70
2023/12/11 00:15:52;;;;;;;41.88;6.70;;;;;;;;;;4970958;28;100044;-71
2023/12/11 00:18:18;;;;;;;41.33;7.75;;;;;;;;;;4969932;28;98211;-70
2023/12/11 00:20:45;;;;;;;39.55;7.63;;;;;;;;;;4970517;28;98494;-72
2023/12/11 00:23:11;;;;;;;46.83;6.57;;;;;;;;;;4970519;28;100208;-71
2023/12/11 00:25:43;;;;;;;42.33;6.05;;;;;;;;;;4968598;28;98954;-71
2023/12/11 00:28:10;;;;;;;41.70;6.93;;;;;;;;;;4969180;28;99479;-71
2023/12/11 00:30:36;;;;;;;51.85;8.57;;;;;;;;;;4971656;28;100710;-71
2023/12/11 00:33:03;;;;;;;54.15;7.13;;;;;;;;;;4965543;28;98973;-72
2023/12/11 00:35:29;;;;;;;40.65;6.13;;;;;;;;;;4973224;28;99407;-72
2023/12/11 00:37:56;;;;;;;26.33;5.47;;;;;;;;;;4971474;28;98872;-70
2023/12/11 00:40:22;;;;;;;45.88;7.35;;;;;;;;;;4967343;28;99310;-71
2023/12/11 00:42:49;;;;;;;57.88;8.00;;;;;;;;;;4976751;28;99016;-71
2023/12/11 00:45:15;;;;;;;55.72;8.32;;;;;;;;;;4968352;28;98675;-72
2023/12/11 00:47:42;;;;;;;52.00;6.38;;;;;;;;;;4968222;28;98929;-71
2023/12/11 00:50:08;;;;;;;50.85;9.07;;;;;;;;;;4971017;28;98842;-71
2023/12/11 00:52:35;;;;;;;39.78;7.45;;;;;;;;;;4970257;28;98285;-72
2023/12/11 00:55:02;;;;;;;52.92;7.75;;;;;;;;;;4970586;28;98554;-72
2023/12/11 00:57:29;;;;;;;52.50;7.65;;;;;;;;;;4974661;28;100133;-71
2023/12/11 00:59:56;;;;;;;48.05;8.57;;;;;;;;;;4968151;28;99410;-71
2023/12/11 01:02:22;;;;;;;37.40;7.05;;;;;;;;;;4975577;28;99015;-71
2023/12/11 01:04:49;;;;;;;47.08;7.53;;;;;;;;;;4968205;28;99122;-72
2023/12/11 01:07:16;;;;;;;43.90;7.30;;;;;;;;;;4967253;28;99379;-71
2023/12/11 01:09:42;;;;;;;47.72;7.07;;;;;;;;;;4966416;28;99900;-72
2023/12/11 01:12:09;;;;;;;44.78;7.07;;;;;;;;;;4968512;28;98785;-70
2023/12/11 01:14:37;;;;;;;31.98;6.45;;;;;;;;;;4969829;28;98720;-71
2023/12/11 01:17:04;;;;;;;39.20;7.03;;;;;;;;;;4982617;28;98992;-71
2023/12/11 01:19:50;;;;;;;35.53;6.57;;;;;;;;;;4970873;28;98528;-71
2023/12/11 01:22:17;;;;;;;54.35;6.78;;;;;;;;;;4967104;28;99896;-70
2023/12/11 01:24:43;;;;;;;37.97;6.55;;;;;;;;;;4968436;28;98151;-70
2023/12/11 01:27:10;;;;;;;43.38;6.22;;;;;;;;;;4966588;28;98302;-72
2023/12/11 01:29:36;;;;;;;35.33;5.97;;;;;;;;;;4970167;28;98232;-71
2023/12/11 01:32:03;;;;;;;44.38;7.30;;;;;;;;;;4973010;28;98164;-72
2023/12/11 01:34:30;;;;;;;42.35;6.93;;;;;;;;;;4968146;28;99712;-71
2023/12/11 01:36:56;;;;;;;36.97;5.85;;;;;;;;;;4967836;28;98955;-71
2023/12/11 01:39:23;;;;;;;38.10;8.18;;;;;;;;;;4972480;28;98344;-72
2023/12/11 01:41:49;;;;;;;47.05;6.50;;;;;;;;;;4967260;28;99083;-71
2023/12/11 01:44:16;;;;;;;40.22;6.80;;;;;;;;;;4966534;28;100059;-71
2023/12/11 01:46:44;;;;;;;42.92;6.47;;;;;;;;;;4969164;28;98522;-70
2023/12/11 01:49:10;;;;;;;36.53;7.05;;;;;;;;;;4969763;28;99622;-71
2023/12/11 01:51:37;;;;;;;46.30;7.63;;;;;;;;;;4969678;28;98246;-71
2023/12/11 01:54:04;;;;;;;42.72;7.10;;;;;;;;;;4966859;28;98743;-71
2023/12/11 01:56:30;;;;;;;30.42;6.80;;;;;;;;;;4966508;28;100141;-72
2023/12/11 01:58:57;;;;;;;33.10;7.65;;;;;;;;;;4969366;28;98912;-72
2023/12/11 02:01:25;;;;;;;42.83;7.55;;;;;;;;;;4971959;28;98423;-72
2023/12/11 02:03:52;;;;;;;29.88;6.00;;;;;;;;;;4967763;28;98294;-72
2023/12/11 02:06:19;;;;;;;36.75;6.63;;;;;;;;;;4968612;28;98584;-72
2023/12/11 02:08:46;;;;;;;49.10;6.05;;;;;;;;;;4967261;28;98986;-72
2023/12/11 02:11:13;;;;;;;45.97;6.80;;;;;;;;;;4969419;28;98211;-72
2023/12/11 02:13:40;;;;;;;40.00;6.85;;;;;;;;;;4967246;28;98103;-72
2023/12/11 02:16:06;;;;;;;37.95;5.57;;;;;;;;;;4968639;28;98996;-71
2023/12/11 02:18:33;;;;;;;35.03;6.75;;;;;;;;;;4968918;28;98444;-72
2023/12/11 02:21:00;;;;;;;49.35;6.35;;;;;;;;;;4967251;28;99361;-71
2023/12/11 02:23:26;;;;;;;41.42;6.63;;;;;;;;;;4977137;28;99098;-72
2023/12/11 02:26:01;;;;;;;44.50;7.32;;;;;;;;;;4969368;28;99306;-70
2023/12/11 02:28:27;;;;;;;39.35;5.95;;;;;;;;;;4967440;28;99931;-73
2023/12/11 02:30:54;;;;;;;44.50;5.97;;;;;;;;;;4968116;28;99045;-72
2023/12/11 02:33:21;;;;;;;44.67;6.70;;;;;;;;;;4967841;28;98612;-73
2023/12/11 02:35:47;;;;;;;33.70;6.22;;;;;;;;;;4968774;28;98900;-72
2023/12/11 02:38:14;;;;;;;28.15;4.93;;;;;;;;;;4969086;28;98240;-71
2023/12/11 02:40:40;;;;;;;41.80;6.57;;;;;;;;;;4976231;28;98632;-71
2023/12/11 02:43:06;;;;;;;45.50;5.03;;;;;;;;;;4970872;28;99979;-72
2023/12/11 02:45:33;;;;;;;42.13;7.22;;;;;;;;;;4970918;28;98362;-72
2023/12/11 02:48:02;;;;;;;47.95;7.20;;;;;;;;;;4966019;28;100144;-72
2023/12/11 02:50:30;;;;;;;40.17;5.88;;;;;;;;;;4965388;28;98801;-70
2023/12/11 02:53:00;;;;;;;35.80;6.13;;;;;;;;;;4970055;28;98548;-71
2023/12/11 02:55:26;;;;;;;44.35;7.13;;;;;;;;;;4967225;28;99990;-71
2023/12/11 02:57:56;;;;;;;42.42;6.10;;;;;;;;;;4976000;28;98339;-72
2023/12/11 03:00:23;;;;;;;55.90;6.72;;;;;;;;;;4967633;28;99718;-71
2023/12/11 03:02:50;;;;;;;27.58;4.88;;;;;;;;;;4968616;28;98996;-72
2023/12/11 03:05:16;;;;;;;45.10;5.97;;;;;;;;;;4968681;28;98266;-71
2023/12/11 03:07:43;;;;;;;30.02;5.63;;;;;;;;;;4971384;28;99508;-70
2023/12/11 03:10:10;;;;;;;33.15;4.85;;;;;;;;;;4967998;28;98796;-71
2023/12/11 03:12:36;;;;;;;30.02;4.57;;;;;;;;;;4970763;28;99383;-70
2023/12/11 03:15:06;;;;;;;42.08;5.40;;;;;;;;;;4972527;28;100184;-70
2023/12/11 03:17:33;;;;;;;24.73;3.78;;;;;;;;;;4971855;28;99099;-72
2023/12/11 03:19:59;;;;;;;23.83;5.82;;;;;;;;;;4972148;28;99839;-71
2023/12/11 03:22:26;;;;;;;27.50;4.70;;;;;;;;;;4971523;28;98963;-72
2023/12/11 03:24:53;;;;;;;33.30;5.32;;;;;;;;;;4970822;28;98188;-71
2023/12/11 03:27:20;;;;;;;43.95;5.93;;;;;;;;;;4973222;28;99745;-72
2023/12/11 03:29:47;;;;;;;37.83;5.20;;;;;;;;;;4969862;28;99746;-71
2023/12/11 03:32:14;;;;;;;30.63;7.47;;;;;;;;;;4971748;28;98548;-71
2023/12/11 03:34:40;;;;;;;44.92;6.30;;;;;;;;;;4971676;28;98982;-71
2023/12/11 03:37:08;;;;;;;33.15;6.45;;;;;;;;;;4970660;28;98383;-71
2023/12/11 03:39:35;;;;;;;53.22;6.07;;;;;;;;;;4971243;28;98476;-73
2023/12/11 03:42:01;;;;;;;36.40;4.82;;;;;;;;;;4971348;28;99047;-71
2023/12/11 03:44:28;;;;;;;38.13;5.78;;;;;;;;;;4970899;28;98066;-71
2023/12/11 03:46:54;;;;;;;39.67;6.18;;;;;;;;;;4971595;28;99444;-71
2023/12/11 03:49:21;;;;;;;42.30;6.05;;;;;;;;;;4973188;28;100079;-71
2023/12/11 03:51:48;;;;;;;53.33;6.38;;;;;;;;;;4971139;28;99469;-71
2023/12/11 03:54:15;;;;;;;38.65;7.15;;;;;;;;;;4971384;28;99046;-71
2023/12/11 03:56:41;;;;;;;45.72;5.97;;;;;;;;;;4969348;28;98668;-71
2023/12/11 03:59:08;;;;;;;38.25;7.68;;;;;;;;;;4969271;28;99673;-72
2023/12/11 04:01:35;;;;;;;40.40;6.50;;;;;;;;;;4971350;28;100082;-72
2023/12/11 04:04:02;;;;;;;26.42;5.38;;;;;;;;;;4971832;28;98932;-71
2023/12/11 04:06:28;;;;;;;44.28;6.25;;;;;;;;;;4980738;28;99300;-72
2023/12/11 04:08:55;;;;;;;46.45;7.68;;;;;;;;;;4970127;28;100191;-71
2023/12/11 04:11:21;;;;;;;53.75;7.05;;;;;;;;;;4974229;28;98235;-72
2023/12/11 04:13:48;;;;;;;36.50;5.75;;;;;;;;;;4969386;28;100035;-72
2023/12/11 04:16:14;;;;;;;28.85;5.50;;;;;;;;;;4968146;28;98472;-72
2023/12/11 04:18:42;;;;;;;37.10;5.97;;;;;;;;;;4969503;28;98570;-71
2023/12/11 04:21:08;;;;;;;36.72;6.70;;;;;;;;;;4964601;28;99854;-71
2023/12/11 04:23:35;;;;;;;39.05;6.90;;;;;;;;;;4971406;28;98259;-72
2023/12/11 04:26:02;;;;;;;28.90;6.32;;;;;;;;;;4969253;28;99431;-72
2023/12/11 04:28:29;;;;;;;29.13;5.85;;;;;;;;;;4966302;28;101226;-72
2023/12/11 04:30:56;;;;;;;30.80;5.72;;;;;;;;;;4970128;28;98276;-72
2023/12/11 04:33:22;;;;;;;50.30;7.60;;;;;;;;;;4972381;28;99664;-71
2023/12/11 04:35:49;;;;;;;51.28;6.05;;;;;;;;;;4970278;28;98938;-72
2023/12/11 04:38:15;;;;;;;25.75;5.05;;;;;;;;;;4968478;28;99734;-71
2023/12/11 04:40:42;;;;;;;46.78;7.05;;;;;;;;;;4969677;28;99780;-72
2023/12/11 04:43:08;;;;;;;44.28;7.28;;;;;;;;;;4969597;28;98270;-71
2023/12/11 04:45:35;;;;;;;40.83;5.88;;;;;;;;;;4968070;28;99546;-71
2023/12/11 04:48:01;;;;;;;38.97;5.57;;;;;;;;;;4969556;28;99191;-71
2023/12/11 04:50:28;;;;;;;35.47;5.20;;;;;;;;;;4970593;28;98526;-70
2023/12/11 04:52:55;;;;;;;47.90;6.85;;;;;;;;;;4970661;28;99429;-72
2023/12/11 04:55:21;;;;;;;42.72;5.95;;;;;;;;;;4972991;28;100204;-71
2023/12/11 04:57:48;;;;;;;42.85;6.35;;;;;;;;;;4977110;28;98557;-73
2023/12/11 05:00:15;;;;;;;40.42;5.93;;;;;;;;;;4969925;28;99943;-73
2023/12/11 05:02:42;;;;;;;30.90;5.68;;;;;;;;;;4967842;28;98867;-70
2023/12/11 05:05:10;;;;;;;31.15;5.47;;;;;;;;;;4969909;28;99630;-72
2023/12/11 05:07:36;;;;;;;47.53;5.93;;;;;;;;;;4968826;28;99148;-72
2023/12/11 05:10:03;;;;;;;55.72;6.82;;;;;;;;;;4966850;28;98667;-71
2023/12/11 05:12:30;;;;;;;33.90;5.13;;;;;;;;;;4967497;28;98701;-72
2023/12/11 05:14:56;;;;;;;51.88;8.10;;;;;;;;;;4973532;28;100067;-71
2023/12/11 05:17:23;;;;;;;41.00;6.32;;;;;;;;;;4972315;28;99666;-71
2023/12/11 05:19:52;;;;;;;45.75;6.07;;;;;;;;;;4969107;28;100862;-72
2023/12/11 05:22:18;;;;;;;42.05;6.65;;;;;;;;;;4969998;28;98249;-71
2023/12/11 05:24:45;;;;;;;43.45;7.25;;;;;;;;;;4969547;28;99369;-72
2023/12/11 05:27:12;;;;;;;39.38;4.82;;;;;;;;;;4969906;28;99367;-71
2023/12/11 05:29:38;;;;;;;40.00;5.75;;;;;;;;;;4970226;28;98363;-71
2023/12/11 05:32:05;;;;;;;34.60;6.28;;;;;;;;;;4973407;28;100072;-71
2023/12/11 05:34:31;;;;;;;38.58;5.90;;;;;;;;;;4968103;28;100345;-72
2023/12/11 05:36:58;;;;;;;41.05;6.20;;;;;;;;;;4971474;28;98983;-72
2023/12/11 05:39:24;;;;;;;38.80;7.55;;;;;;;;;;4968619;28;100137;-72
2023/12/11 05:41:51;;;;;;;33.65;6.13;;;;;;;;;;4969829;28;98246;-72
2023/12/11 05:44:18;;;;;;;37.53;5.45;;;;;;;;;;4965883;28;99727;-72
2023/12/11 05:46:44;;;;;;;38.28;5.45;;;;;;;;;;4968341;28;100259;-72
2023/12/11 05:49:11;;;;;;;43.45;6.93;;;;;;;;;;4969455;28;98354;-71
2023/12/11 05:51:38;;;;;;;30.60;5.85;;;;;;;;;;4968969;28;99208;-71
2023/12/11 05:54:05;;;;;;;26.80;4.32;;;;;;;;;;4970350;28;99114;-71
2023/12/11 05:56:31;;;;;;;38.63;5.97;;;;;;;;;;4968173;28;100083;-71
2023/12/11 05:58:58;;;;;;;32.50;5.80;;;;;;;;;;4970541;28;98624;-71
2023/12/11 06:01:25;;;;;;;31.67;5.90;;;;;;;;;;4965935;28;98911;-72
2023/12/11 06:03:52;;;;;;;38.40;6.35;;;;;;;;;;4970110;28;100790;-71
2023/12/11 06:06:19;;;;;;;31.88;5.50;;;;;;;;;;4968929;28;98912;-72
2023/12/11 06:08:45;;;;;;;27.05;5.30;;;;;;;;;;4969032;28;98322;-72
2023/12/11 06:11:12;;;;;;;28.52;5.60;;;;;;;;;;4968851;28;99794;-71
2023/12/11 06:13:38;;;;;;;39.10;4.80;;;;;;;;;;4967855;28;100071;-70
2023/12/11 06:16:05;;;;;;;36.95;4.93;;;;;;;;;;4966923;28;98600;-72
2023/12/11 06:18:31;;;;;;;23.83;4.22;;;;;;;;;;4968207;28;98609;-70
2023/12/11 06:20:58;;;;;;;20.33;5.43;;;;;;;;;;4971529;28;99168;-72
2023/12/11 06:23:30;;;;;;;23.83;5.88;;;;;;;;;;4969147;28;98542;-71
2023/12/11 06:25:56;;;;;;;20.38;3.80;;;;;;;;;;4967798;28;99252;-71
2023/12/11 06:28:23;;;;;;;26.23;5.65;;;;;;;;;;4966244;28;98309;-70
2023/12/11 06:30:49;;;;;;;26.00;4.40;;;;;;;;;;4969570;28;98582;-71
2023/12/11 06:33:16;;;;;;;39.97;4.85;;;;;;;;;;4966816;28;99004;-72
2023/12/11 06:35:42;;;;;;;29.77;5.78;;;;;;;;;;4967383;28;99582;-72
2023/12/11 06:38:09;;;;;;;32.33;6.35;;;;;;;;;;4967686;28;98750;-70
2023/12/11 06:40:35;;;;;;;27.15;4.40;;;;;;;;;;4967269;28;98996;-70
2023/12/11 06:43:02;;;;;;;17.95;4.72;;;;;;;;;;4970763;28;98349;-71
2023/12/11 06:45:29;;;;;;;17.88;4.07;;;;;;;;;;4963723;28;99877;-72
2023/12/11 06:48:01;;;;;;;16.95;3.53;;;;;;;;;;4966851;28;99560;-71
2023/12/11 06:50:27;;;;;;;23.48;4.45;;;;;;;;;;4966912;28;99149;-70
2023/12/11 06:52:54;;;;;;;20.70;3.22;;;;;;;;;;4968646;28;100271;-72
2023/12/11 06:55:21;;;;;;;25.33;4.47;;;;;;;;;;4968757;28;98254;-72
2023/12/11 06:57:47;;;;;;;17.92;4.93;;;;;;;;;;4965869;28;99578;-72
2023/12/11 07:00:14;;;;;;;16.08;3.83;;;;;;;;;;4967330;28;99706;-72
2023/12/11 07:02:40;;;;;;;20.05;3.35;;;;;;;;;;4974900;28;98391;-71
2023/12/11 07:05:07;;;;;;;19.88;3.47;;;;;;;;;;4974457;28;98401;-71
2023/12/11 07:07:34;;;;;;;25.73;4.13;;;;;;;;;;4985132;28;100350;-71
2023/12/11 07:10:04;;;;;;;20.90;3.33;;;;;;;;;;4979237;28;99260;-71
2023/12/11 07:12:31;;;;;;;27.98;4.68;;;;;;;;;;4980898;28;100282;-71
2023/12/11 07:14:58;;;;;;;10.68;2.63;;;;;;;;;;4988332;28;98358;-71
2023/12/11 07:17:24;;;;;;;14.98;3.17;;;;;;;;;;4975865;28;99508;-71
2023/12/11 07:19:51;;;;;;;15.73;3.63;;;;;;;;;;4948912;28;98851;-71
2023/12/11 07:22:17;;;;;;;9.35;2.45;;;;;;;;;;4948630;28;98233;-71
2023/12/11 07:24:44;;;;;;;17.13;3.65;;;;;;;;;;4949060;28;98549;-71
2023/12/11 07:27:12;;;;;;;14.05;3.15;;;;;;;;;;4959044;28;98231;-72
2023/12/11 07:29:38;;;;;;;16.48;3.03;;;;;;;;;;4967837;28;99500;-72
2023/12/11 07:32:05;;;;;;;16.95;3.58;;;;;;;;;;4978070;28;99313;-71
2023/12/11 07:34:32;;;;;;;14.75;3.28;;;;;;;;;;4960959;28;100412;-71
2023/12/11 07:36:58;;;;;;;19.13;2.65;;;;;;;;;;4987849;28;98502;-71
2023/12/11 07:39:25;;;;;;;13.02;3.25;;;;;;;;;;4975139;28;99956;-71
2023/12/11 07:41:51;;;;;;;11.95;3.22;;;;;;;;;;4984527;28;98276;-71
2023/12/11 07:44:18;;;;;;;20.42;3.33;;;;;;;;;;4974205;28;99377;-70
2023/12/11 07:46:44;;;;;;;10.82;2.65;;;;;;;;;;4987054;28;99869;-72
2023/12/11 07:49:14;;;;;;;14.73;4.13;;;;;;;;;;4986258;28;99407;-72
2023/12/11 07:51:41;;;;;;;16.85;2.72;;;;;;;;;;4975141;28;99983;-72
2023/12/11 07:54:08;;;;;;;11.90;2.20;;;;;;;;;;4967974;28;98750;-71
2023/12/11 07:56:36;;;;;;;9.25;1.95;;;;;;;;;;4966609;28;99613;-71
2023/12/11 07:59:03;;;;;;;8.50;2.30;;;;;;;;;;4970507;28;99172;-72
2023/12/11 08:01:32;;;;;;;7.32;2.08;;;;;;;;;;4971035;28;98642;-71
2023/12/11 08:03:59;;;;;;;5.40;2.10;;;;;;;;;;4972365;28;98820;-72
2023/12/11 08:06:26;;;;;;;10.52;2.33;;;;;;;;;;4970455;28;98910;-72
2023/12/11 08:08:52;;;;;;;4.20;1.48;;;;;;;;;;4974718;28;98276;-72
2023/12/11 08:11:24;;;;;;;16.20;3.45;;;;;;;;;;4970743;28;100005;-71
2023/12/11 08:13:51;;;;;;;11.00;2.95;;;;;;;;;;4967434;28;98744;-71
2023/12/11 08:16:17;;;;;;;19.35;3.95;;;;;;;;;;4969934;28;98500;-71
2023/12/11 08:18:44;;;;;;;6.07;2.53;;;;;;;;;;4969911;28;99134;-71
2023/12/11 08:21:12;;;;;;;21.33;3.92;;;;;;;;;;4971747;28;97979;-71
2023/12/11 08:23:39;;;;;;;8.60;2.38;;;;;;;;;;4971126;28;98633;-71
2023/12/11 08:26:06;;;;;;;18.95;3.00;;;;;;;;;;4975017;28;99921;-72
2023/12/11 08:28:33;;;;;;;16.40;2.88;;;;;;;;;;4982280;28;98980;-72
2023/12/11 08:30:59;;;;;;;18.30;3.08;;;;;;;;;;4974928;28;99549;-71
2023/12/11 08:33:26;;;;;;;26.95;3.83;;;;;;;;;;4966924;28;99080;-71
2023/12/11 08:35:53;;;;;;;22.50;3.40;;;;;;;;;;4971534;28;98873;-72
2023/12/11 08:38:22;;;;;;;12.32;3.30;;;;;;;;;;4963459;28;99931;-71
2023/12/11 08:40:49;;;;;;;9.27;3.40;;;;;;;;;;4966004;28;99198;-71
2023/12/11 08:43:16;;;;;;;23.92;4.68;;;;;;;;;;4961661;28;98808;-71
2023/12/11 08:45:43;;;;;;;14.02;3.17;;;;;;;;;;4960637;28;99945;-70
2023/12/11 08:48:09;;;;;;;14.10;2.92;;;;;;;;;;4966708;28;98328;-71
2023/12/11 08:50:36;;;;;;;11.48;2.83;;;;;;;;;;4969709;28;98555;-70
2023/12/11 08:53:03;;;;;;;17.95;3.88;;;;;;;;;;4972611;28;99002;-71
2023/12/11 08:55:30;;;;;;;17.25;3.92;;;;;;;;;;4983475;28;98891;-71
2023/12/11 08:57:57;;;;;;;11.18;3.22;;;;;;;;;;4958846;28;99065;-72
2023/12/11 09:00:23;;;;;;;12.23;2.80;;;;;;;;;;4965559;28;99677;-70
2023/12/11 09:02:51;;;;;;;25.23;3.78;;;;;;;;;;4969737;28;99346;-70
2023/12/11 09:05:17;;;;;;;17.05;3.15;;;;;;;;;;4964221;28;100109;-71
2023/12/11 09:07:44;;;;;;;10.02;3.10;;;;;;;;;;4971505;28;98480;-71
2023/12/11 09:10:10;;;;;;;13.07;3.15;;;;;;;;;;4969611;28;99201;-72
2023/12/11 09:12:37;;;;;;;16.23;3.17;;;;;;;;;;4950472;28;100347;-72
2023/12/11 09:15:04;;;;;;;10.40;3.25;;;;;;;;;;4953233;28;98482;-71
2023/12/11 09:17:32;;;;;;;29.80;5.88;;;;;;;;;;4949871;28;99908;-70
2023/12/11 09:19:59;;;;;;;11.82;2.92;;;;;;;;;;4950785;28;98628;-71
2023/12/11 09:22:26;;;;;;;24.85;4.32;;;;;;;;;;4949720;28;100209;-71
2023/12/11 09:24:52;;;;;;;15.43;3.40;;;;;;;;;;4950613;28;98982;-72
2023/12/11 09:27:19;;;;;;;29.63;5.10;;;;;;;;;;4950685;28;99233;-72
2023/12/11 09:29:48;;;;;;;20.55;3.60;;;;;;;;;;4949922;28;98575;-72
2023/12/11 09:32:16;;;;;;;9.15;2.53;;;;;;;;;;4949833;28;100582;-72
2023/12/11 09:34:42;;;;;;;12.32;3.63;;;;;;;;;;4954157;28;98052;-72
2023/12/11 09:37:09;;;;;;;17.83;3.45;;;;;;;;;;4949271;28;99061;-72
2023/12/11 09:39:37;;;;;;;22.40;3.75;;;;;;;;;;4950425;28;98328;-71
2023/12/11 09:42:05;;;;;;;21.00;4.15;;;;;;;;;;4950216;28;99383;-72
2023/12/11 09:44:32;;;;;;;14.07;3.42;;;;;;;;;;4949426;28;98978;-71
2023/12/11 09:47:03;;;;;;;14.13;3.20;;;;;;;;;;4950366;28;98669;-71
2023/12/11 09:49:30;;;;;;;8.60;2.00;;;;;;;;;;4949996;28;99717;-71
2023/12/11 09:51:57;;;;;;;16.38;3.05;;;;;;;;;;4949675;28;99084;-70
2023/12/11 09:54:24;;;;;;;16.40;4.25;;;;;;;;;;4949937;28;99690;-71
2023/12/11 09:56:50;;;;;;;20.73;3.53;;;;;;;;;;4952851;28;99371;-72
2023/12/11 09:59:17;;;;;;;16.23;3.67;;;;;;;;;;4949330;28;98141;-71
2023/12/11 10:01:45;;;;;;;9.48;3.00;;;;;;;;;;4950060;28;99520;-71
2023/12/11 10:04:11;;;;;;;15.15;4.47;;;;;;;;;;4948774;28;99023;-72
2023/12/11 10:06:38;;;;;;;16.95;2.67;;;;;;;;;;4950286;28;98539;-70
2023/12/11 10:09:05;;;;;;;19.95;3.58;;;;;;;;;;4949767;28;98536;-71
2023/12/11 10:11:32;;;;;;;20.20;3.45;;;;;;;;;;4948815;28;100158;-71
2023/12/11 10:14:10;;;;;;;13.82;4.13;;;;;;;;;;4949763;28;98314;-71
2023/12/11 10:16:37;;;;;;;17.45;3.47;;;;;;;;;;4949928;28;99357;-71
2023/12/11 10:19:03;;;;;;;25.98;3.80;;;;;;;;;;4951578;28;99968;-71
2023/12/11 10:21:40;;;;;;;19.02;3.95;;;;;;;;;;4949903;28;99284;-72
2023/12/11 10:24:09;;;;;;;13.32;3.28;;;;;;;;;;4949262;28;100276;-72
2023/12/11 10:26:37;;;;;;;25.13;3.75;;;;;;;;;;4948920;28;98281;-70
2023/12/11 10:29:19;;;;;;;10.90;2.88;;;;;;;;;;4949839;28;98641;-72
2023/12/11 10:31:46;;;;;;;;;;;;;;;;;;4950173;28;98994;-72
2023/12/11 10:34:13;;;;;;;19.60;2.85;;;;;;;;;;4948198;28;105146;-72
2023/12/11 10:36:50;;;;;;;18.98;4.57;;;;;;;;;;4949736;28;99040;-72
2023/12/11 10:39:17;;;;;;;19.50;2.90;;;;;;;;;;4947764;28;100095;-72
2023/12/11 10:41:46;;;;;;;9.98;3.45;;;;;;;;;;4971505;28;98336;-70
2023/12/11 10:44:23;;;;;;;12.02;2.70;;;;;;;;;;4968436;28;100305;-71
2023/12/11 10:46:56;;;;;;;30.48;4.35;;;;;;;;;;4968371;28;98159;-71
2023/12/11 10:49:23;;;;;;;13.10;2.42;;;;;;;;;;4962567;28;99696;-71
2023/12/11 10:51:50;;;;;;;18.88;2.80;;;;;;;;;;4968584;28;100608;-72
2023/12/11 10:54:17;;;;;;;15.85;2.22;;;;;;;;;;4968020;28;98215;-72
2023/12/11 10:56:45;;;;;;;16.38;2.30;;;;;;;;;;4967764;28;99535;-72
2023/12/11 10:59:12;;;;;;;8.38;3.25;;;;;;;;;;4968240;28;99822;-71
2023/12/11 11:01:44;;;;;;;17.77;2.78;;;;;;;;;;4968029;28;98581;-71
2023/12/11 11:04:11;;;;;;;17.33;3.00;;;;;;;;;;4971664;28;99444;-70
2023/12/11 11:06:46;;;;;;;11.57;2.63;;;;;;;;;;4968978;28;98245;-71
2023/12/11 11:09:16;;;;;;;13.55;2.90;;;;;;;;;;4968101;28;99444;-71
2023/12/11 11:11:45;;;;;;;9.27;2.47;;;;;;;;;;4968483;28;98886;-72
2023/12/11 11:14:24;;;;;;;16.90;3.40;;;;;;;;;;4968697;28;98274;-72
2023/12/11 11:16:56;;;;;;;11.73;2.28;;;;;;;;;;4968680;28;99534;-71
2023/12/11 11:19:24;;;;;;;;;;;;;;;;;;4968448;28;99995;-71
2023/12/11 11:22:00;;;;;;;21.95;3.67;;;;;;;;;;4966877;28;118504;-72
2023/12/11 11:24:27;;;;;;;13.88;3.47;;;;;;;;;;4968165;28;98340;-71
2023/12/11 11:26:54;;;;;;;8.23;1.90;;;;;;;;;;4971406;28;100085;-72
2023/12/11 11:29:40;;;;;;;13.57;2.67;;;;;;;;;;4967655;28;99674;-72
2023/12/11 11:32:07;;;;;;;6.93;2.15;;;;;;;;;;4970740;28;99024;-72
2023/12/11 11:34:39;;;;;;;16.30;3.33;;;;;;;;;;4971974;28;98717;-72
2023/12/11 11:37:06;;;;;;;19.13;2.95;;;;;;;;;;4970980;28;98773;-71
2023/12/11 11:39:51;;;;;;;8.60;2.08;;;;;;;;;;4971711;28;99920;-73
2023/12/11 11:42:18;;;;;;;10.07;2.80;;;;;;;;;;4970661;28;99075;-72
2023/12/11 11:44:44;;;;;;;11.77;2.13;;;;;;;;;;4970984;28;99450;-72
2023/12/11 11:47:16;;;;;;;7.45;2.30;;;;;;;;;;4974243;28;98987;-72
2023/12/11 11:49:42;;;;;;;10.68;2.15;;;;;;;;;;4970553;28;99239;-72
2023/12/11 11:52:11;;;;;;;15.18;2.25;;;;;;;;;;4971311;28;99246;-73
2023/12/11 11:54:38;;;;;;;11.13;2.03;;;;;;;;;;4965114;28;99075;-72
2023/12/11 11:57:05;;;;;;;5.35;2.00;;;;;;;;;;4958595;28;99310;-72
2023/12/11 11:59:42;;;;;;;9.77;1.48;;;;;;;;;;4951568;28;99241;-72
2023/12/11 12:02:08;;;;;;;15.50;3.25;;;;;;;;;;4951723;28;98292;-72
2023/12/11 12:04:34;;;;;;;9.55;1.98;;;;;;;;;;4950748;28;99747;-72
2023/12/11 12:07:03;;;;;;;7.57;2.03;;;;;;;;;;4963546;28;100098;-71
2023/12/11 12:09:30;;;;;;;4.38;1.90;;;;;;;;;;4967906;28;98533;-71
2023/12/11 12:11:57;;;;;;;2.50;1.10;;;;;;;;;;4962494;28;99101;-73
2023/12/11 12:14:25;;;;;;;9.45;2.22;;;;;;;;;;4965650;28;99444;-72
2023/12/11 12:16:52;;;;;;;17.10;2.17;;;;;;;;;;4957615;28;100179;-70
2023/12/11 12:19:28;;;;;;;6.95;2.17;;;;;;;;;;4969856;28;99936;-72
2023/12/11 12:21:55;;;;;;;7.60;2.30;;;;;;;;;;4976014;28;98174;-72
2023/12/11 12:24:22;;;;;;;5.68;1.83;;;;;;;;;;4966668;28;99918;-72
2023/12/11 12:26:54;;;;;;;6.35;1.92;;;;;;;;;;4965496;28;99979;-72
2023/12/11 12:29:21;;;;;;;8.60;2.17;;;;;;;;;;4973788;27;98678;-72
2023/12/11 12:31:47;;;;;;;8.93;1.90;;;;;;;;;;4974801;28;99810;-71
2023/12/11 12:34:14;;;;;;;17.40;4.53;;;;;;;;;;4970458;28;98287;-72
2023/12/11 12:36:42;;;;;;;13.57;2.97;;;;;;;;;;4972084;28;98707;-71
2023/12/11 12:39:11;;;;;;;8.90;2.20;;;;;;;;;;4967842;28;99921;-72
2023/12/11 12:41:37;;;;;;;15.73;3.20;;;;;;;;;;4971387;28;99904;-72
2023/12/11 12:44:04;;;;;;;6.05;2.25;;;;;;;;;;4957167;28;99610;-72
2023/12/11 12:46:37;;;;;;;14.40;2.20;;;;;;;;;;4958567;28;98762;-71
2023/12/11 12:49:09;;;;;;;7.18;1.80;;;;;;;;;;4969663;28;98354;-71
2023/12/11 12:51:46;;;;;;;7.28;1.95;;;;;;;;;;4962153;28;98686;-72
2023/12/11 12:54:14;;;;;;;9.57;2.28;;;;;;;;;;4993242;28;99597;-72
2023/12/11 12:56:41;;;;;;;5.65;2.53;;;;;;;;;;4990947;28;99573;-72
2023/12/11 12:59:08;;;;;;;6.00;1.88;;;;;;;;;;4974846;28;99389;-71
2023/12/11 13:01:38;;;;;;;11.23;3.60;;;;;;;;;;4963142;28;98643;-72
2023/12/11 13:04:06;;;;;;;7.18;1.90;;;;;;;;;;4970276;28;98824;-71
2023/12/11 13:06:33;;;;;;;11.45;2.22;;;;;;;;;;4954043;28;98835;-71
2023/12/11 13:08:59;;;;;;;7.22;1.58;;;;;;;;;;4972479;28;98421;-71
2023/12/11 13:11:38;;;;;;;18.25;2.25;;;;;;;;;;4989682;28;99369;-71
2023/12/11 13:14:05;;;;;;;7.50;1.80;;;;;;;;;;4964288;28;99311;-72
2023/12/11 13:16:31;;;;;;;8.55;1.85;;;;;;;;;;4980934;28;98962;-72
2023/12/11 13:18:58;;;;;;;5.32;1.80;;;;;;;;;;4962165;28;99947;-72
2023/12/11 13:21:25;;;;;;;9.63;1.75;;;;;;;;;;4967878;28;98467;-72
2023/12/11 13:23:51;;;;;;;6.57;2.03;;;;;;;;;;4950758;28;99493;-72
2023/12/11 13:26:18;;;;;;;7.55;1.83;;;;;;;;;;4957965;28;99882;-72
2023/12/11 13:28:47;;;;;;;7.97;2.28;;;;;;;;;;4975382;27;99636;-72
2023/12/11 13:31:13;;;;;;;29.83;2.85;;;;;;;;;;4966894;28;99502;-71
2023/12/11 13:33:40;;;;;;;17.88;2.40;;;;;;;;;;4965154;28;100213;-71
2023/12/11 13:36:07;;;;;;;10.68;1.67;;;;;;;;;;4980820;28;98545;-72
2023/12/11 13:38:37;;;;;;;4.53;1.55;;;;;;;;;;4980839;28;99318;-73
2023/12/11 13:41:04;;;;;;;7.07;1.58;;;;;;;;;;4975213;28;98945;-72
2023/12/11 13:43:30;;;;;;;6.45;1.83;;;;;;;;;;4982005;28;98823;-72
2023/12/11 13:45:56;;;;;;;4.15;1.75;;;;;;;;;;4967492;28;100037;-70
2023/12/11 13:48:23;;;;;;;10.48;4.35;;;;;;;;;;4962624;28;99039;-73
2023/12/11 13:50:50;;;;;;;17.00;2.10;;;;;;;;;;4985461;28;99503;-74
2023/12/11 13:53:16;;;;;;;7.03;1.83;;;;;;;;;;4969838;28;99881;-71
2023/12/11 13:55:43;;;;;;;7.13;2.22;;;;;;;;;;4975419;28;98168;-72
2023/12/11 13:58:09;;;;;;;8.77;2.10;;;;;;;;;;4962952;28;98492;-72
2023/12/11 14:00:36;;;;;;;11.20;2.53;;;;;;;;;;4970718;28;98251;-72
2023/12/11 14:03:02;;;;;;;12.30;2.17;;;;;;;;;;4989374;28;98403;-72
2023/12/11 14:05:33;;;;;;;16.55;2.03;;;;;;;;;;4982178;28;99948;-72
2023/12/11 14:08:00;;;;;;;6.40;1.98;;;;;;;;;;4978492;28;98270;-72
2023/12/11 14:10:27;;;;;;;11.15;2.30;;;;;;;;;;4970079;28;99289;-72
2023/12/11 14:12:53;;;;;;;10.27;2.10;;;;;;;;;;4986799;28;99888;-72
2023/12/11 14:15:20;;;;;;;13.48;2.78;;;;;;;;;;4987243;28;98329;-72
2023/12/11 14:17:47;;;;;;;7.90;2.30;;;;;;;;;;4981807;28;98559;-71
2023/12/11 14:20:13;;;;;;;6.40;2.28;;;;;;;;;;4989686;28;100044;-71
2023/12/11 14:22:40;;;;;;;3.78;3.35;;;;;;;;;;4986765;28;99780;-72
2023/12/11 14:25:08;;;;;;;7.95;2.60;;;;;;;;;;4987853;28;99171;-72
2023/12/11 14:27:35;;;;;;;8.23;4.35;;;;;;;;;;4974716;28;98843;-72
2023/12/11 14:30:01;;;;;;;9.52;2.40;;;;;;;;;;4962026;28;99458;-72
2023/12/11 14:32:28;;;;;;;13.65;2.58;;;;;;;;;;4954758;28;99225;-72